sensor_id;sensor_type;location;lat;lon;timestamp;temperature;humidity
64843;DHT22;51310;52.198;5.422;2022-08-18T00:01:44;18.00;99.90
64843;DHT22;51310;52.198;5.422;2022-08-18T00:04:14;18.10;99.90
64843;DHT22;51310;52.198;5.422;2022-08-18T00:06:41;18.10;99.90
64843;DHT22;51310;52.198;5.422;2022-08-18T00:09:09;18.20;99.90
64843;DHT22;51310;52.198;5.422;2022-08-18T00:11:39;18.20;99.90
64843;DHT22;51310;52.198;5.422;2022-08-18T00:14:13;18.10;99.90
64843;DHT22;51310;52.198;5.422;2022-08-18T00:16:42;17.90;99.90
64843;DHT22;51310;52.198;5.422;2022-08-18T00:19:08;17.80;99.90
64843;DHT22;51310;52.198;5.422;2022-08-18T00:21:34;18.40;99.90
64843;DHT22;51310;52.198;5.422;2022-08-18T00:24:00;17.90;99.90
64843;DHT22;51310;52.198;5.422;2022-08-18T00:26:27;17.90;99.90
64843;DHT22;51310;52.198;5.422;2022-08-18T00:28:52;17.90;99.90
64843;DHT22;51310;52.198;5.422;2022-08-18T00:31:18;17.80;99.90
64843;DHT22;51310;52.198;5.422;2022-08-18T00:33:44;17.80;99.90
64843;DHT22;51310;52.198;5.422;2022-08-18T00:36:11;20.10;99.90
64843;DHT22;51310;52.198;5.422;2022-08-18T00:38:38;17.60;99.90
64843;DHT22;51310;52.198;5.422;2022-08-18T00:41:04;17.60;99.90
64843;DHT22;51310;52.198;5.422;2022-08-18T00:43:42;17.80;99.90
64843;DHT22;51310;52.198;5.422;2022-08-18T00:46:27;17.70;99.90
64843;DHT22;51310;52.198;5.422;2022-08-18T00:48:58;17.60;99.90
64843;DHT22;51310;52.198;5.422;2022-08-18T00:51:46;17.50;99.90
64843;DHT22;51310;52.198;5.422;2022-08-18T00:54:19;17.50;99.90
64843;DHT22;51310;52.198;5.422;2022-08-18T00:57:00;17.80;99.90
64843;DHT22;51310;52.198;5.422;2022-08-18T00:59:41;17.70;99.90
64843;DHT22;51310;52.198;5.422;2022-08-18T01:02:30;17.70;99.90
64843;DHT22;51310;52.198;5.422;2022-08-18T01:05:06;17.60;99.90
64843;DHT22;51310;52.198;5.422;2022-08-18T01:10:20;17.70;99.90
64843;DHT22;51310;52.198;5.422;2022-08-18T01:12:53;17.80;99.90
64843;DHT22;51310;52.198;5.422;2022-08-18T01:15:24;18.80;99.90
64843;DHT22;51310;52.198;5.422;2022-08-18T01:17:52;17.70;99.90
64843;DHT22;51310;52.198;5.422;2022-08-18T01:20:43;17.90;99.90
64843;DHT22;51310;52.198;5.422;2022-08-18T01:23:36;18.00;99.90
64843;DHT22;51310;52.198;5.422;2022-08-18T01:26:03;18.00;99.90
64843;DHT22;51310;52.198;5.422;2022-08-18T01:28:33;18.00;99.90
64843;DHT22;51310;52.198;5.422;2022-08-18T01:31:06;18.00;99.90
64843;DHT22;51310;52.198;5.422;2022-08-18T01:33:36;18.10;99.90
64843;DHT22;51310;52.198;5.422;2022-08-18T01:36:15;18.10;99.90
64843;DHT22;51310;52.198;5.422;2022-08-18T01:38:47;18.20;99.90
64843;DHT22;51310;52.198;5.422;2022-08-18T01:41:17;18.70;99.90
64843;DHT22;51310;52.198;5.422;2022-08-18T01:43:48;18.10;99.90
64843;DHT22;51310;52.198;5.422;2022-08-18T01:46:19;17.90;99.90
64843;DHT22;51310;52.198;5.422;2022-08-18T01:48:46;18.10;99.90
64843;DHT22;51310;52.198;5.422;2022-08-18T01:51:13;18.10;99.90
64843;DHT22;51310;52.198;5.422;2022-08-18T01:53:42;18.30;99.90
64843;DHT22;51310;52.198;5.422;2022-08-18T01:58:35;18.40;99.90
64843;DHT22;51310;52.198;5.422;2022-08-18T02:03:36;18.20;99.90
64843;DHT22;51310;52.198;5.422;2022-08-18T02:06:08;18.00;99.90
64843;DHT22;51310;52.198;5.422;2022-08-18T02:08:38;18.00;99.90
64843;DHT22;51310;52.198;5.422;2022-08-18T02:11:05;18.00;99.90
64843;DHT22;51310;52.198;5.422;2022-08-18T02:13:33;18.00;99.90
64843;DHT22;51310;52.198;5.422;2022-08-18T02:15:59;18.00;99.90
64843;DHT22;51310;52.198;5.422;2022-08-18T02:18:29;17.90;99.90
64843;DHT22;51310;52.198;5.422;2022-08-18T02:21:10;17.90;99.90
64843;DHT22;51310;52.198;5.422;2022-08-18T02:23:41;17.90;99.90
64843;DHT22;51310;52.198;5.422;2022-08-18T02:26:10;17.80;99.90
64843;DHT22;51310;52.198;5.422;2022-08-18T02:28:39;17.80;99.90
64843;DHT22;51310;52.198;5.422;2022-08-18T02:31:09;17.80;99.90
64843;DHT22;51310;52.198;5.422;2022-08-18T02:33:42;17.70;99.90
64843;DHT22;51310;52.198;5.422;2022-08-18T02:36:10;17.80;99.90
64843;DHT22;51310;52.198;5.422;2022-08-18T02:38:37;17.90;99.90
64843;DHT22;51310;52.198;5.422;2022-08-18T02:41:05;17.70;99.90
64843;DHT22;51310;52.198;5.422;2022-08-18T02:43:35;17.70;99.90
64843;DHT22;51310;52.198;5.422;2022-08-18T02:46:03;17.60;99.90
64843;DHT22;51310;52.198;5.422;2022-08-18T02:48:31;17.60;99.90
64843;DHT22;51310;52.198;5.422;2022-08-18T02:51:10;17.70;99.90
64843;DHT22;51310;52.198;5.422;2022-08-18T02:53:42;17.70;99.90
64843;DHT22;51310;52.198;5.422;2022-08-18T02:56:17;17.70;99.90
64843;DHT22;51310;52.198;5.422;2022-08-18T02:58:51;17.80;99.90
64843;DHT22;51310;52.198;5.422;2022-08-18T03:01:29;17.80;99.90
64843;DHT22;51310;52.198;5.422;2022-08-18T03:04:06;17.80;99.90
64843;DHT22;51310;52.198;5.422;2022-08-18T03:06:35;17.80;99.90
64843;DHT22;51310;52.198;5.422;2022-08-18T03:09:04;17.70;99.90
64843;DHT22;51310;52.198;5.422;2022-08-18T03:11:34;17.70;99.90
64843;DHT22;51310;52.198;5.422;2022-08-18T03:14:00;17.70;99.90
64843;DHT22;51310;52.198;5.422;2022-08-18T03:16:27;17.70;99.90
64843;DHT22;51310;52.198;5.422;2022-08-18T03:18:58;17.70;99.90
64843;DHT22;51310;52.198;5.422;2022-08-18T03:21:27;17.70;99.90
64843;DHT22;51310;52.198;5.422;2022-08-18T03:23:56;17.80;99.90
64843;DHT22;51310;52.198;5.422;2022-08-18T03:26:23;17.80;99.90
64843;DHT22;51310;52.198;5.422;2022-08-18T03:28:52;17.90;99.90
64843;DHT22;51310;52.198;5.422;2022-08-18T03:31:20;17.80;99.90
64843;DHT22;51310;52.198;5.422;2022-08-18T03:33:50;17.90;99.90
64843;DHT22;51310;52.198;5.422;2022-08-18T03:36:22;18.00;99.90
64843;DHT22;51310;52.198;5.422;2022-08-18T03:38:53;18.00;99.90
64843;DHT22;51310;52.198;5.422;2022-08-18T03:41:22;18.00;99.90
64843;DHT22;51310;52.198;5.422;2022-08-18T03:43:51;17.90;99.90
64843;DHT22;51310;52.198;5.422;2022-08-18T03:46:18;17.90;99.90
64843;DHT22;51310;52.198;5.422;2022-08-18T03:48:47;17.90;99.90
64843;DHT22;51310;52.198;5.422;2022-08-18T03:51:19;17.90;99.90
64843;DHT22;51310;52.198;5.422;2022-08-18T03:53:51;17.90;99.90
64843;DHT22;51310;52.198;5.422;2022-08-18T03:56:23;17.90;99.90
64843;DHT22;51310;52.198;5.422;2022-08-18T03:58:55;17.90;99.90
64843;DHT22;51310;52.198;5.422;2022-08-18T04:01:27;18.00;99.90
64843;DHT22;51310;52.198;5.422;2022-08-18T04:03:59;17.90;99.90
64843;DHT22;51310;52.198;5.422;2022-08-18T04:06:32;17.90;99.90
64843;DHT22;51310;52.198;5.422;2022-08-18T04:09:06;17.90;99.90
64843;DHT22;51310;52.198;5.422;2022-08-18T04:11:36;17.90;99.90
64843;DHT22;51310;52.198;5.422;2022-08-18T04:14:03;17.90;99.90
64843;DHT22;51310;52.198;5.422;2022-08-18T04:16:31;18.00;99.90
64843;DHT22;51310;52.198;5.422;2022-08-18T04:18:59;18.00;99.90
64843;DHT22;51310;52.198;5.422;2022-08-18T04:21:30;18.00;99.90
64843;DHT22;51310;52.198;5.422;2022-08-18T04:24:00;18.10;99.90
64843;DHT22;51310;52.198;5.422;2022-08-18T04:26:30;18.10;99.90
64843;DHT22;51310;52.198;5.422;2022-08-18T04:29:01;19.60;99.90
64843;DHT22;51310;52.198;5.422;2022-08-18T04:31:29;17.90;99.90
64843;DHT22;51310;52.198;5.422;2022-08-18T04:33:57;17.80;99.90
64843;DHT22;51310;52.198;5.422;2022-08-18T04:36:26;17.90;99.90
64843;DHT22;51310;52.198;5.422;2022-08-18T04:38:54;17.90;99.90
64843;DHT22;51310;52.198;5.422;2022-08-18T04:41:20;17.90;99.90
64843;DHT22;51310;52.198;5.422;2022-08-18T04:43:53;18.00;99.90
64843;DHT22;51310;52.198;5.422;2022-08-18T04:46:23;17.90;99.90
64843;DHT22;51310;52.198;5.422;2022-08-18T04:48:50;17.90;99.90
64843;DHT22;51310;52.198;5.422;2022-08-18T04:51:19;17.90;99.90
64843;DHT22;51310;52.198;5.422;2022-08-18T04:53:46;17.90;99.90
64843;DHT22;51310;52.198;5.422;2022-08-18T04:56:22;17.80;99.90
64843;DHT22;51310;52.198;5.422;2022-08-18T04:58:53;17.80;99.90
64843;DHT22;51310;52.198;5.422;2022-08-18T05:01:45;17.90;99.90
64843;DHT22;51310;52.198;5.422;2022-08-18T05:04:13;17.90;99.90
64843;DHT22;51310;52.198;5.422;2022-08-18T05:06:42;18.00;99.90
64843;DHT22;51310;52.198;5.422;2022-08-18T05:09:11;18.00;99.90
64843;DHT22;51310;52.198;5.422;2022-08-18T05:11:40;17.90;99.90
64843;DHT22;51310;52.198;5.422;2022-08-18T05:14:07;18.00;99.90
64843;DHT22;51310;52.198;5.422;2022-08-18T05:16:35;17.90;99.90
64843;DHT22;51310;52.198;5.422;2022-08-18T05:19:07;18.30;99.90
64843;DHT22;51310;52.198;5.422;2022-08-18T05:21:36;18.40;99.90
64843;DHT22;51310;52.198;5.422;2022-08-18T05:24:07;18.50;99.90
64843;DHT22;51310;52.198;5.422;2022-08-18T05:26:35;18.50;99.90
64843;DHT22;51310;52.198;5.422;2022-08-18T05:29:02;18.60;99.90
64843;DHT22;51310;52.198;5.422;2022-08-18T05:31:29;18.60;99.90
64843;DHT22;51310;52.198;5.422;2022-08-18T05:33:55;18.60;99.90
64843;DHT22;51310;52.198;5.422;2022-08-18T05:41:57;18.70;99.90
64843;DHT22;51310;52.198;5.422;2022-08-18T05:44:35;18.70;99.90
64843;DHT22;51310;52.198;5.422;2022-08-18T05:47:27;18.70;99.90
64843;DHT22;51310;52.198;5.422;2022-08-18T05:49:57;18.80;99.90
64843;DHT22;51310;52.198;5.422;2022-08-18T05:52:57;18.90;99.90
64843;DHT22;51310;52.198;5.422;2022-08-18T05:55:36;19.00;99.90
64843;DHT22;51310;52.198;5.422;2022-08-18T05:58:37;19.10;99.90
64843;DHT22;51310;52.198;5.422;2022-08-18T06:01:12;19.20;99.90
64843;DHT22;51310;52.198;5.422;2022-08-18T06:06:32;20.50;99.90
64843;DHT22;51310;52.198;5.422;2022-08-18T06:09:25;19.50;99.90
64843;DHT22;51310;52.198;5.422;2022-08-18T06:12:25;19.50;99.90
64843;DHT22;51310;52.198;5.422;2022-08-18T06:24:42;19.40;99.90
64843;DHT22;51310;52.198;5.422;2022-08-18T06:28:06;19.50;99.90
64843;DHT22;51310;52.198;5.422;2022-08-18T06:36:26;19.70;99.90
64843;DHT22;51310;52.198;5.422;2022-08-18T06:42:08;19.70;99.90
64843;DHT22;51310;52.198;5.422;2022-08-18T06:44:41;19.70;99.90
64843;DHT22;51310;52.198;5.422;2022-08-18T06:50:47;19.90;99.90
64843;DHT22;51310;52.198;5.422;2022-08-18T06:53:19;20.00;99.90
64843;DHT22;51310;52.198;5.422;2022-08-18T06:55:48;19.90;99.90
64843;DHT22;51310;52.198;5.422;2022-08-18T07:01:04;20.00;99.90
64843;DHT22;51310;52.198;5.422;2022-08-18T07:08:49;20.10;99.90
64843;DHT22;51310;52.198;5.422;2022-08-18T07:11:32;19.10;99.90
64843;DHT22;51310;52.198;5.422;2022-08-18T07:14:19;20.30;99.90
64843;DHT22;51310;52.198;5.422;2022-08-18T07:16:47;20.40;99.90
64843;DHT22;51310;52.198;5.422;2022-08-18T07:19:19;20.30;99.90
64843;DHT22;51310;52.198;5.422;2022-08-18T07:22:00;20.10;99.90
64843;DHT22;51310;52.198;5.422;2022-08-18T07:24:43;20.10;99.90
64843;DHT22;51310;52.198;5.422;2022-08-18T07:27:18;20.10;99.90
64843;DHT22;51310;52.198;5.422;2022-08-18T07:30:12;20.20;99.90
64843;DHT22;51310;52.198;5.422;2022-08-18T07:33:18;20.60;99.90
64843;DHT22;51310;52.198;5.422;2022-08-18T07:35:58;20.60;99.90
64843;DHT22;51310;52.198;5.422;2022-08-18T07:38:42;20.70;99.90
64843;DHT22;51310;52.198;5.422;2022-08-18T07:41:29;20.80;99.90
64843;DHT22;51310;52.198;5.422;2022-08-18T07:47:03;21.40;99.90
64843;DHT22;51310;52.198;5.422;2022-08-18T07:49:40;21.00;99.90
64843;DHT22;51310;52.198;5.422;2022-08-18T07:52:24;21.20;99.90
64843;DHT22;51310;52.198;5.422;2022-08-18T07:57:56;21.40;99.90
64843;DHT22;51310;52.198;5.422;2022-08-18T08:01:30;19.10;99.90
64843;DHT22;51310;52.198;5.422;2022-08-18T08:07:34;21.30;99.90
64843;DHT22;51310;52.198;5.422;2022-08-18T08:13:48;20.90;99.90
64843;DHT22;51310;52.198;5.422;2022-08-18T08:20:24;21.20;99.90
64843;DHT22;51310;52.198;5.422;2022-08-18T08:23:20;21.10;99.90
64843;DHT22;51310;52.198;5.422;2022-08-18T08:26:39;21.70;99.90
64843;DHT22;51310;52.198;5.422;2022-08-18T08:32:32;21.60;99.90
64843;DHT22;51310;52.198;5.422;2022-08-18T08:35:20;21.70;99.90
64843;DHT22;51310;52.198;5.422;2022-08-18T08:38:05;21.90;99.90
64843;DHT22;51310;52.198;5.422;2022-08-18T08:41:12;21.40;99.90
64843;DHT22;51310;52.198;5.422;2022-08-18T08:47:06;21.40;99.90
64843;DHT22;51310;52.198;5.422;2022-08-18T08:49:43;21.40;99.90
64843;DHT22;51310;52.198;5.422;2022-08-18T08:52:26;21.60;99.90
64843;DHT22;51310;52.198;5.422;2022-08-18T08:55:05;21.80;99.90
64843;DHT22;51310;52.198;5.422;2022-08-18T08:58:18;22.20;99.90
64843;DHT22;51310;52.198;5.422;2022-08-18T09:00:49;22.10;99.90
64843;DHT22;51310;52.198;5.422;2022-08-18T09:09:49;21.90;99.90
64843;DHT22;51310;52.198;5.422;2022-08-18T09:22:46;22.10;99.90
64843;DHT22;51310;52.198;5.422;2022-08-18T09:39:32;22.20;99.90
64843;DHT22;51310;52.198;5.422;2022-08-18T09:42:37;22.40;99.30
64843;DHT22;51310;52.198;5.422;2022-08-18T09:56:13;22.90;97.80
64843;DHT22;51310;52.198;5.422;2022-08-18T09:58:54;22.80;98.50
64843;DHT22;51310;52.198;5.422;2022-08-18T10:01:36;22.60;99.60
64843;DHT22;51310;52.198;5.422;2022-08-18T10:06:43;22.50;94.70
64843;DHT22;51310;52.198;5.422;2022-08-18T10:09:35;22.80;92.10
64843;DHT22;51310;52.198;5.422;2022-08-18T10:12:40;22.80;93.60
64843;DHT22;51310;52.198;5.422;2022-08-18T10:15:45;22.80;95.50
64843;DHT22;51310;52.198;5.422;2022-08-18T10:24:29;22.10;99.90
64843;DHT22;51310;52.198;5.422;2022-08-18T10:32:59;22.10;99.00
64843;DHT22;51310;52.198;5.422;2022-08-18T10:38:22;22.30;99.90
64843;DHT22;51310;52.198;5.422;2022-08-18T10:41:02;22.30;99.90
64843;DHT22;51310;52.198;5.422;2022-08-18T10:43:44;22.60;98.80
64843;DHT22;51310;52.198;5.422;2022-08-18T10:46:17;22.70;96.60
64843;DHT22;51310;52.198;5.422;2022-08-18T10:49:00;22.80;96.60
64843;DHT22;51310;52.198;5.422;2022-08-18T10:54:56;22.80;98.40
64843;DHT22;51310;52.198;5.422;2022-08-18T11:04:10;22.50;99.90
64843;DHT22;51310;52.198;5.422;2022-08-18T11:07:14;22.70;99.90
64843;DHT22;51310;52.198;5.422;2022-08-18T11:09:50;22.60;99.90
64843;DHT22;51310;52.198;5.422;2022-08-18T11:18:56;23.00;95.70
64843;DHT22;51310;52.198;5.422;2022-08-18T11:27:00;23.30;95.60
64843;DHT22;51310;52.198;5.422;2022-08-18T11:29:33;23.30;96.90
64843;DHT22;51310;52.198;5.422;2022-08-18T11:32:30;23.10;94.80
64843;DHT22;51310;52.198;5.422;2022-08-18T11:48:43;23.60;91.00
64843;DHT22;51310;52.198;5.422;2022-08-18T11:51:29;23.70;90.10
64843;DHT22;51310;52.198;5.422;2022-08-18T11:54:01;23.20;92.00
64843;DHT22;51310;52.198;5.422;2022-08-18T11:56:36;23.40;92.30
64843;DHT22;51310;52.198;5.422;2022-08-18T11:59:07;23.20;93.00
64843;DHT22;51310;52.198;5.422;2022-08-18T12:02:00;23.30;93.40
64843;DHT22;51310;52.198;5.422;2022-08-18T12:04:40;20.80;92.80
64843;DHT22;51310;52.198;5.422;2022-08-18T12:07:13;23.30;93.50
64843;DHT22;51310;52.198;5.422;2022-08-18T12:09:47;23.50;91.10
64843;DHT22;51310;52.198;5.422;2022-08-18T12:12:46;23.50;91.20
64843;DHT22;51310;52.198;5.422;2022-08-18T12:17:43;23.40;90.50
64843;DHT22;51310;52.198;5.422;2022-08-18T12:20:13;23.40;90.80
64843;DHT22;51310;52.198;5.422;2022-08-18T12:22:42;23.10;91.10
64843;DHT22;51310;52.198;5.422;2022-08-18T12:25:12;23.10;91.10
64843;DHT22;51310;52.198;5.422;2022-08-18T12:27:41;23.80;91.50
64843;DHT22;51310;52.198;5.422;2022-08-18T12:30:08;23.30;91.00
64843;DHT22;51310;52.198;5.422;2022-08-18T12:35:05;23.50;91.30
64843;DHT22;51310;52.198;5.422;2022-08-18T12:37:36;23.70;91.30
64843;DHT22;51310;52.198;5.422;2022-08-18T12:40:06;23.70;91.00
64843;DHT22;51310;52.198;5.422;2022-08-18T12:42:33;23.50;91.40
64843;DHT22;51310;52.198;5.422;2022-08-18T12:44:59;23.50;90.60
64843;DHT22;51310;52.198;5.422;2022-08-18T12:47:26;23.50;90.90
64843;DHT22;51310;52.198;5.422;2022-08-18T12:49:52;23.50;90.90
64843;DHT22;51310;52.198;5.422;2022-08-18T12:52:19;23.30;91.70
64843;DHT22;51310;52.198;5.422;2022-08-18T12:54:46;23.40;92.70
64843;DHT22;51310;52.198;5.422;2022-08-18T12:57:23;23.10;92.70
64843;DHT22;51310;52.198;5.422;2022-08-18T12:59:52;23.10;93.40
64843;DHT22;51310;52.198;5.422;2022-08-18T13:02:19;23.00;92.80
64843;DHT22;51310;52.198;5.422;2022-08-18T13:04:46;23.00;94.10
64843;DHT22;51310;52.198;5.422;2022-08-18T13:07:12;22.90;92.90
64843;DHT22;51310;52.198;5.422;2022-08-18T13:09:40;22.80;93.50
64843;DHT22;51310;52.198;5.422;2022-08-18T13:12:07;22.80;93.60
64843;DHT22;51310;52.198;5.422;2022-08-18T13:14:34;22.90;94.30
64843;DHT22;51310;52.198;5.422;2022-08-18T13:17:00;22.80;93.10
64843;DHT22;51310;52.198;5.422;2022-08-18T13:19:27;22.90;93.80
64843;DHT22;51310;52.198;5.422;2022-08-18T13:21:53;23.00;93.90
64843;DHT22;51310;52.198;5.422;2022-08-18T13:24:19;23.00;93.80
64843;DHT22;51310;52.198;5.422;2022-08-18T13:26:46;22.90;93.70
64843;DHT22;51310;52.198;5.422;2022-08-18T13:29:14;23.00;94.30
64843;DHT22;51310;52.198;5.422;2022-08-18T13:31:42;23.00;93.60
64843;DHT22;51310;52.198;5.422;2022-08-18T13:34:09;22.60;93.50
64843;DHT22;51310;52.198;5.422;2022-08-18T13:36:35;22.70;95.40
64843;DHT22;51310;52.198;5.422;2022-08-18T13:39:15;22.50;96.20
64843;DHT22;51310;52.198;5.422;2022-08-18T13:41:49;22.50;95.80
64843;DHT22;51310;52.198;5.422;2022-08-18T13:44:18;22.50;95.80
64843;DHT22;51310;52.198;5.422;2022-08-18T13:46:47;22.40;95.80
64843;DHT22;51310;52.198;5.422;2022-08-18T13:49:17;22.40;96.00
64843;DHT22;51310;52.198;5.422;2022-08-18T13:51:47;22.50;97.60
64843;DHT22;51310;52.198;5.422;2022-08-18T13:54:24;22.70;97.60
64843;DHT22;51310;52.198;5.422;2022-08-18T13:56:53;22.70;96.30
64843;DHT22;51310;52.198;5.422;2022-08-18T13:59:21;22.80;96.20
64843;DHT22;51310;52.198;5.422;2022-08-18T14:01:49;23.00;95.30
64843;DHT22;51310;52.198;5.422;2022-08-18T14:04:17;23.20;94.20
64843;DHT22;51310;52.198;5.422;2022-08-18T14:06:44;23.20;94.60
64843;DHT22;51310;52.198;5.422;2022-08-18T14:09:10;23.50;92.10
64843;DHT22;51310;52.198;5.422;2022-08-18T14:11:38;23.70;92.00
64843;DHT22;51310;52.198;5.422;2022-08-18T14:14:04;23.70;90.10
64843;DHT22;51310;52.198;5.422;2022-08-18T14:16:32;23.70;85.60
64843;DHT22;51310;52.198;5.422;2022-08-18T14:18:59;23.70;88.00
64843;DHT22;51310;52.198;5.422;2022-08-18T14:21:49;23.80;90.00
64843;DHT22;51310;52.198;5.422;2022-08-18T14:24:39;24.00;86.40
64843;DHT22;51310;52.198;5.422;2022-08-18T14:27:27;24.00;87.20
64843;DHT22;51310;52.198;5.422;2022-08-18T14:29:57;24.00;86.00
64843;DHT22;51310;52.198;5.422;2022-08-18T14:32:27;24.00;84.20
64843;DHT22;51310;52.198;5.422;2022-08-18T14:34:58;23.80;85.90
64843;DHT22;51310;52.198;5.422;2022-08-18T14:37:27;23.90;86.70
64843;DHT22;51310;52.198;5.422;2022-08-18T14:42:22;23.90;83.30
64843;DHT22;51310;52.198;5.422;2022-08-18T14:44:48;23.80;86.20
64843;DHT22;51310;52.198;5.422;2022-08-18T14:47:14;21.90;85.90
64843;DHT22;51310;52.198;5.422;2022-08-18T14:49:41;24.50;82.20
64843;DHT22;51310;52.198;5.422;2022-08-18T14:52:08;24.50;83.40
64843;DHT22;51310;52.198;5.422;2022-08-18T14:54:36;24.20;80.40
64843;DHT22;51310;52.198;5.422;2022-08-18T14:57:03;24.30;80.40
64843;DHT22;51310;52.198;5.422;2022-08-18T14:59:31;24.20;82.20
64843;DHT22;51310;52.198;5.422;2022-08-18T15:01:57;24.10;81.50
64843;DHT22;51310;52.198;5.422;2022-08-18T15:04:24;23.90;85.10
64843;DHT22;51310;52.198;5.422;2022-08-18T15:06:52;23.80;84.60
64843;DHT22;51310;52.198;5.422;2022-08-18T15:09:18;23.70;85.10
64843;DHT22;51310;52.198;5.422;2022-08-18T15:11:45;23.40;86.40
64843;DHT22;51310;52.198;5.422;2022-08-18T15:14:11;23.30;87.80
64843;DHT22;51310;52.198;5.422;2022-08-18T15:16:36;23.70;85.60
64843;DHT22;51310;52.198;5.422;2022-08-18T15:19:03;23.50;86.80
64843;DHT22;51310;52.198;5.422;2022-08-18T15:21:29;23.50;85.90
64843;DHT22;51310;52.198;5.422;2022-08-18T15:24:16;23.40;87.00
64843;DHT22;51310;52.198;5.422;2022-08-18T15:27:01;23.20;88.80
64843;DHT22;51310;52.198;5.422;2022-08-18T15:29:31;23.10;88.50
64843;DHT22;51310;52.198;5.422;2022-08-18T15:31:58;23.40;90.00
64843;DHT22;51310;52.198;5.422;2022-08-18T15:34:25;23.40;90.90
64843;DHT22;51310;52.198;5.422;2022-08-18T15:36:50;23.30;88.60
64843;DHT22;51310;52.198;5.422;2022-08-18T15:39:17;23.30;88.50
64843;DHT22;51310;52.198;5.422;2022-08-18T15:41:44;23.30;90.10
64843;DHT22;51310;52.198;5.422;2022-08-18T15:44:14;23.40;86.70
64843;DHT22;51310;52.198;5.422;2022-08-18T15:46:42;23.50;87.60
64843;DHT22;51310;52.198;5.422;2022-08-18T15:49:09;23.40;86.00
64843;DHT22;51310;52.198;5.422;2022-08-18T15:51:37;23.50;87.80
64843;DHT22;51310;52.198;5.422;2022-08-18T15:54:06;23.70;84.20
64843;DHT22;51310;52.198;5.422;2022-08-18T15:56:32;23.70;80.90
64843;DHT22;51310;52.198;5.422;2022-08-18T15:58:59;23.70;81.20
64843;DHT22;51310;52.198;5.422;2022-08-18T16:01:32;23.80;80.80
64843;DHT22;51310;52.198;5.422;2022-08-18T16:04:03;23.90;77.50
64843;DHT22;51310;52.198;5.422;2022-08-18T16:06:32;23.90;79.80
64843;DHT22;51310;52.198;5.422;2022-08-18T16:09:02;23.90;80.40
64843;DHT22;51310;52.198;5.422;2022-08-18T16:11:29;24.10;80.70
64843;DHT22;51310;52.198;5.422;2022-08-18T16:13:55;25.40;81.00
64843;DHT22;51310;52.198;5.422;2022-08-18T16:16:23;23.80;78.50
64843;DHT22;51310;52.198;5.422;2022-08-18T16:18:50;23.70;79.60
64843;DHT22;51310;52.198;5.422;2022-08-18T16:21:17;23.90;80.10
64843;DHT22;51310;52.198;5.422;2022-08-18T16:23:49;24.30;75.80
64843;DHT22;51310;52.198;5.422;2022-08-18T16:26:17;24.00;78.50
64843;DHT22;51310;52.198;5.422;2022-08-18T16:28:48;23.80;79.10
64843;DHT22;51310;52.198;5.422;2022-08-18T16:31:18;23.80;80.40
64843;DHT22;51310;52.198;5.422;2022-08-18T16:33:50;25.90;80.20
64843;DHT22;51310;52.198;5.422;2022-08-18T16:36:18;23.70;80.10
64843;DHT22;51310;52.198;5.422;2022-08-18T16:38:46;23.80;78.50
64843;DHT22;51310;52.198;5.422;2022-08-18T16:41:14;23.70;79.10
64843;DHT22;51310;52.198;5.422;2022-08-18T16:43:42;23.60;79.40
64843;DHT22;51310;52.198;5.422;2022-08-18T16:46:14;23.70;79.00
64843;DHT22;51310;52.198;5.422;2022-08-18T16:48:43;23.70;81.20
64843;DHT22;51310;52.198;5.422;2022-08-18T16:51:15;23.70;81.70
64843;DHT22;51310;52.198;5.422;2022-08-18T16:53:46;23.60;81.60
64843;DHT22;51310;52.198;5.422;2022-08-18T16:56:21;23.80;80.80
64843;DHT22;51310;52.198;5.422;2022-08-18T16:58:50;23.80;81.60
64843;DHT22;51310;52.198;5.422;2022-08-18T17:01:36;24.00;80.20
64843;DHT22;51310;52.198;5.422;2022-08-18T17:04:24;24.30;78.80
64843;DHT22;51310;52.198;5.422;2022-08-18T17:06:55;24.10;79.60
64843;DHT22;51310;52.198;5.422;2022-08-18T17:09:22;24.00;79.30
64843;DHT22;51310;52.198;5.422;2022-08-18T17:11:49;23.50;82.10
64843;DHT22;51310;52.198;5.422;2022-08-18T17:14:15;23.90;81.80
64843;DHT22;51310;52.198;5.422;2022-08-18T17:16:41;24.00;81.30
64843;DHT22;51310;52.198;5.422;2022-08-18T17:19:08;24.10;82.50
64843;DHT22;51310;52.198;5.422;2022-08-18T17:21:35;24.10;83.10
64843;DHT22;51310;52.198;5.422;2022-08-18T17:24:04;24.90;77.90
64843;DHT22;51310;52.198;5.422;2022-08-18T17:29:35;25.20;73.80
64843;DHT22;51310;52.198;5.422;2022-08-18T17:32:34;24.80;74.20
64843;DHT22;51310;52.198;5.422;2022-08-18T17:35:13;24.70;75.90
64843;DHT22;51310;52.198;5.422;2022-08-18T17:37:54;24.90;73.70
64843;DHT22;51310;52.198;5.422;2022-08-18T17:40:34;25.00;72.80
64843;DHT22;51310;52.198;5.422;2022-08-18T17:43:11;25.30;72.00
64843;DHT22;51310;52.198;5.422;2022-08-18T17:45:41;25.10;71.80
64843;DHT22;51310;52.198;5.422;2022-08-18T17:48:17;25.00;72.40
64843;DHT22;51310;52.198;5.422;2022-08-18T17:57:43;24.90;71.00
64843;DHT22;51310;52.198;5.422;2022-08-18T18:00:08;24.50;71.80
64843;DHT22;51310;52.198;5.422;2022-08-18T18:02:41;24.40;72.40
64843;DHT22;51310;52.198;5.422;2022-08-18T18:05:12;24.60;72.60
64843;DHT22;51310;52.198;5.422;2022-08-18T18:10:43;24.70;73.80
64843;DHT22;51310;52.198;5.422;2022-08-18T18:15:55;24.10;75.50
64843;DHT22;51310;52.198;5.422;2022-08-18T18:18:43;24.20;77.10
64843;DHT22;51310;52.198;5.422;2022-08-18T18:23:45;23.80;79.40
64843;DHT22;51310;52.198;5.422;2022-08-18T18:26:28;23.60;80.70
64843;DHT22;51310;52.198;5.422;2022-08-18T18:43:25;22.50;91.10
64843;DHT22;51310;52.198;5.422;2022-08-18T18:55:22;21.80;98.30
64843;DHT22;51310;52.198;5.422;2022-08-18T19:00:59;21.50;99.80
64843;DHT22;51310;52.198;5.422;2022-08-18T19:03:44;21.30;99.90
64843;DHT22;51310;52.198;5.422;2022-08-18T19:06:30;21.30;99.90
64843;DHT22;51310;52.198;5.422;2022-08-18T19:09:30;21.20;99.90
64843;DHT22;51310;52.198;5.422;2022-08-18T19:12:21;21.10;99.90
64843;DHT22;51310;52.198;5.422;2022-08-18T19:15:02;20.90;99.90
64843;DHT22;51310;52.198;5.422;2022-08-18T19:17:43;20.90;99.90
64843;DHT22;51310;52.198;5.422;2022-08-18T19:20:31;21.00;99.90
64843;DHT22;51310;52.198;5.422;2022-08-18T19:23:14;21.00;99.90
64843;DHT22;51310;52.198;5.422;2022-08-18T19:25:52;20.80;99.90
64843;DHT22;51310;52.198;5.422;2022-08-18T19:31:39;20.80;99.90
64843;DHT22;51310;52.198;5.422;2022-08-18T19:34:41;22.20;99.90
64843;DHT22;51310;52.198;5.422;2022-08-18T19:40:19;20.70;99.90
64843;DHT22;51310;52.198;5.422;2022-08-18T19:43:18;20.60;99.90
64843;DHT22;51310;52.198;5.422;2022-08-18T19:49:00;20.40;99.90
64843;DHT22;51310;52.198;5.422;2022-08-18T19:51:37;20.40;99.90
64843;DHT22;51310;52.198;5.422;2022-08-18T19:54:31;20.40;99.90
64843;DHT22;51310;52.198;5.422;2022-08-18T20:18:33;20.00;99.90
64843;DHT22;51310;52.198;5.422;2022-08-18T20:32:28;19.90;99.90